Time;durP1;ratioP1;P1;durP2;ratioP2;P2;SDS_P1;SDS_P2;PMS_P1;PMS_P2;Temp;Humidity;BMP_temperature;BMP_pressure;BME280_temperature;BME280_humidity;BME280_pressure;Samples;Min_cycle;Max_cycle;Signal;HPM_P1;HPM_P2
2023/01/25 00:01:46;;;;;;;30.93;22.03;;;3.90;99.90;;;;;;4997924;28;20038;-84
2023/01/25 00:04:13;;;;;;;43.13;26.27;;;3.90;99.90;;;;;;5002959;28;20403;-84
2023/01/25 00:06:39;;;;;;;38.80;26.17;;;3.90;99.90;;;;;;5012239;28;20030;-84
2023/01/25 00:09:05;;;;;;;46.27;29.30;;;3.80;99.90;;;;;;5007493;28;20042;-84
2023/01/25 00:11:31;;;;;;;44.13;25.97;;;3.90;99.90;;;;;;4994230;28;20025;-85
2023/01/25 00:13:57;;;;;;;48.80;26.67;;;3.90;99.90;;;;;;4975886;28;20046;-84
2023/01/25 00:16:23;;;;;;;44.57;27.73;;;3.90;99.90;;;;;;4972715;28;20031;-84
2023/01/25 00:18:49;;;;;;;43.43;27.97;;;3.90;99.90;;;;;;4989340;28;20031;-83
2023/01/25 00:21:17;;;;;;;46.67;29.90;;;4.00;99.90;;;;;;4992872;28;20046;-84
2023/01/25 00:23:43;;;;;;;45.13;27.20;;;3.90;99.90;;;;;;4992297;28;20046;-84
2023/01/25 00:26:09;;;;;;;44.70;28.93;;;4.00;99.90;;;;;;4992363;28;20027;-84
2023/01/25 00:28:35;;;;;;;47.93;27.07;;;4.00;99.90;;;;;;4992397;28;20049;-84
2023/01/25 00:31:02;;;;;;;43.60;27.53;;;3.90;99.90;;;;;;4975096;28;20399;-84
2023/01/25 00:33:38;;;;;;;45.80;28.27;;;4.00;99.90;;;;;;4991704;28;20034;-83
2023/01/25 00:36:27;;;;;;;50.03;30.77;;;3.90;99.90;;;;;;4983227;28;20053;-85
2023/01/25 00:38:53;;;;;;;50.73;31.47;;;3.90;99.90;;;;;;4990867;28;20407;-84
2023/01/25 00:41:19;;;;;;;48.20;29.67;;;3.80;99.90;;;;;;4958670;28;20369;-84
2023/01/25 00:43:45;;;;;;;46.73;29.10;;;3.80;99.90;;;;;;4963090;28;20050;-84
2023/01/25 00:46:14;;;;;;;34.40;20.43;;;3.80;99.90;;;;;;4954593;28;20394;-84
2023/01/25 00:48:40;;;;;;;51.57;28.83;;;3.70;99.90;;;;;;4953569;28;20035;-84
2023/01/25 00:51:06;;;;;;;48.53;27.37;;;3.70;99.90;;;;;;4954671;28;20388;-84
2023/01/25 00:53:32;;;;;;;52.73;29.30;;;3.70;99.90;;;;;;4955099;28;20041;-84
2023/01/25 00:55:58;;;;;;;46.77;27.47;;;3.70;99.90;;;;;;4955002;28;20062;-84
2023/01/25 00:58:24;;;;;;;49.43;28.73;;;3.60;99.90;;;;;;4954977;28;20472;-84
2023/01/25 01:00:52;;;;;;;49.07;28.47;;;3.60;99.90;;;;;;4951152;28;20043;-85
2023/01/25 01:03:18;;;;;;;43.97;27.93;;;3.70;99.90;;;;;;4968556;28;20039;-84
2023/01/25 01:05:44;;;;;;;45.67;26.87;;;3.60;99.90;;;;;;4987316;28;20104;-84
2023/01/25 01:08:11;;;;;;;47.50;26.83;;;3.60;99.90;;;;;;4960828;28;20027;-84
2023/01/25 01:10:37;;;;;;;45.37;27.77;;;3.60;99.90;;;;;;4955123;28;20047;-84
2023/01/25 01:13:03;;;;;;;52.03;30.63;;;3.60;99.90;;;;;;4971047;28;20046;-84
2023/01/25 01:15:29;;;;;;;53.00;31.43;;;3.60;99.90;;;;;;4976057;28;20030;-83
2023/01/25 01:17:55;;;;;;;48.03;27.27;;;3.60;99.90;;;;;;4974407;28;20038;-84
2023/01/25 01:20:22;;;;;;;52.87;29.80;;;3.70;99.90;;;;;;4990693;28;20383;-84
2023/01/25 01:22:51;;;;;;;49.97;29.23;;;3.70;99.90;;;;;;4998338;28;20041;-84
2023/01/25 01:25:17;;;;;;;52.33;31.10;;;3.70;99.90;;;;;;5006416;28;20494;-84
2023/01/25 01:27:43;;;;;;;55.63;30.40;;;3.70;99.90;;;;;;4994023;28;20038;-84
2023/01/25 01:30:10;;;;;;;54.50;32.10;;;3.70;99.90;;;;;;4994359;28;20064;-84
2023/01/25 01:32:36;;;;;;;52.63;30.40;;;3.70;99.90;;;;;;5001584;28;20030;-84
2023/01/25 01:35:02;;;;;;;44.50;25.67;;;3.70;99.90;;;;;;4992690;28;20042;-84
2023/01/25 01:37:28;;;;;;;46.07;25.90;;;3.70;99.90;;;;;;4992847;28;20026;-84
2023/01/25 01:39:54;;;;;;;50.40;28.57;;;3.60;99.90;;;;;;4992250;28;20034;-84
2023/01/25 01:42:20;;;;;;;48.57;27.60;;;3.60;99.90;;;;;;4993739;28;20022;-84
2023/01/25 01:44:52;;;;;;;48.83;28.73;;;3.60;99.90;;;;;;4998892;28;20038;-84
2023/01/25 01:47:40;;;;;;;59.20;29.40;;;3.60;99.90;;;;;;4999682;28;20039;-84
2023/01/25 01:50:20;;;;;;;49.27;28.80;;;3.60;99.90;;;;;;4994915;28;20034;-84
2023/01/25 01:52:46;;;;;;;46.67;26.50;;;3.60;99.90;;;;;;4994646;28;20061;-84
2023/01/25 01:55:14;;;;;;;37.20;23.07;;;3.60;99.90;;;;;;4994794;28;20415;-84
2023/01/25 01:57:46;;;;;;;39.50;22.83;;;3.60;99.90;;;;;;5011134;28;20030;-85
2023/01/25 02:00:17;;;;;;;49.30;29.87;;;3.60;99.90;;;;;;5010281;28;20046;-84
2023/01/25 02:02:43;;;;;;;50.92;29.13;;;3.60;99.90;;;;;;5020014;28;20471;-84
2023/01/25 02:05:13;;;;;;;51.07;28.70;;;3.60;99.90;;;;;;5026945;28;20049;-84
2023/01/25 02:07:39;;;;;;;47.53;27.25;;;3.50;99.90;;;;;;5035906;28;20037;-84
2023/01/25 02:10:08;;;;;;;44.57;26.20;;;3.60;99.90;;;;;;5008377;28;20422;-84
2023/01/25 02:12:34;;;;;;;45.00;27.60;;;3.60;99.90;;;;;;5010150;28;20041;-84
2023/01/25 02:15:00;;;;;;;51.20;27.47;;;3.60;99.90;;;;;;4993721;28;20050;-84
2023/01/25 02:17:32;;;;;;;49.00;28.83;;;3.60;99.90;;;;;;4978903;28;20031;-84
2023/01/25 02:20:17;;;;;;;50.50;29.13;;;3.60;99.90;;;;;;4992345;28;20047;-84
2023/01/25 02:22:52;;;;;;;50.90;27.50;;;3.60;99.90;;;;;;4995587;28;20145;-84
2023/01/25 02:25:18;;;;;;;48.80;28.80;;;3.60;99.90;;;;;;4994016;28;20522;-84
2023/01/25 02:27:52;;;;;;;49.73;29.07;;;3.60;99.90;;;;;;4994410;28;20050;-84
2023/01/25 02:30:18;;;;;;;54.27;30.80;;;3.60;99.90;;;;;;4990301;28;20412;-84
2023/01/25 02:32:44;;;;;;;49.33;30.33;;;3.60;99.90;;;;;;5009637;28;20049;-84
2023/01/25 02:35:34;;;;;;;51.73;28.80;;;3.60;99.90;;;;;;4995470;28;20034;-84
2023/01/25 02:38:00;;;;;;;51.17;30.00;;;3.60;99.90;;;;;;5009250;28;20030;-84
2023/01/25 02:40:26;;;;;;;52.80;28.07;;;3.70;99.90;;;;;;5010544;28;20026;-84
2023/01/25 02:42:52;;;;;;;53.73;29.93;;;3.60;99.90;;;;;;5009933;28;20034;-84
2023/01/25 02:45:18;;;;;;;48.67;26.90;;;3.60;99.90;;;;;;5002115;28;20053;-84
2023/01/25 02:47:44;;;;;;;45.97;27.77;;;3.60;99.90;;;;;;4985211;28;20030;-84
2023/01/25 02:50:10;;;;;;;53.10;29.40;;;3.60;99.90;;;;;;5014294;28;20060;-84
2023/01/25 02:52:36;;;;;;;54.37;29.60;;;3.60;99.90;;;;;;4996622;28;20506;-84
2023/01/25 02:55:03;;;;;;;49.37;29.97;;;3.60;99.90;;;;;;5005210;28;20046;-84
2023/01/25 02:57:29;;;;;;;47.83;27.73;;;3.60;99.90;;;;;;5021013;28;20529;-84
2023/01/25 02:59:55;;;;;;;55.17;30.57;;;3.60;99.90;;;;;;5024581;28;20037;-84
2023/01/25 03:02:21;;;;;;;45.83;28.03;;;3.60;99.90;;;;;;4954987;28;20497;-84
2023/01/25 03:04:47;;;;;;;44.83;27.27;;;3.70;99.90;;;;;;4992250;28;20030;-84
2023/01/25 03:07:13;;;;;;;49.30;29.37;;;3.60;99.90;;;;;;5003964;28;20057;-84
2023/01/25 03:09:39;;;;;;;49.43;28.53;;;3.60;99.90;;;;;;4991807;28;20491;-84
2023/01/25 03:12:06;;;;;;;48.97;29.27;;;3.60;99.90;;;;;;4992090;28;20041;-84
2023/01/25 03:14:32;;;;;;;53.67;29.60;;;3.60;99.90;;;;;;5007922;28;20957;-84
2023/01/25 03:16:58;;;;;;;41.70;25.10;;;3.70;99.90;;;;;;4998657;28;20130;-85
2023/01/25 03:19:24;;;;;;;55.23;30.27;;;3.60;99.90;;;;;;4996108;28;20506;-85
2023/01/25 03:21:50;;;;;;;43.73;25.57;;;3.60;99.90;;;;;;4994773;28;20037;-84
2023/01/25 03:24:16;;;;;;;43.43;27.33;;;3.60;99.90;;;;;;5005766;28;20030;-85
2023/01/25 03:29:27;;;;;;;51.00;29.97;;;3.50;99.90;;;;;;4992738;28;20054;-85
2023/01/25 03:31:53;;;;;;;31.70;20.17;;;3.50;99.90;;;;;;4974716;28;20038;-85
2023/01/25 03:34:19;;;;;;;47.87;27.67;;;3.60;99.90;;;;;;5002567;28;20057;-84
2023/01/25 03:36:45;;;;;;;44.57;26.73;;;3.60;99.90;;;;;;4998969;28;20038;-84
2023/01/25 03:39:11;;;;;;;41.10;24.77;;;3.60;99.90;;;;;;4993595;28;20029;-84
2023/01/25 03:41:37;;;;;;;50.13;28.83;;;3.60;99.90;;;;;;5025729;28;20038;-84
2023/01/25 03:44:03;;;;;;;53.30;30.03;;;3.70;99.90;;;;;;5026792;28;20395;-84
2023/01/25 03:46:29;;;;;;;47.73;28.90;;;3.60;99.90;;;;;;4992926;28;20405;-85
2023/01/25 03:48:55;;;;;;;47.73;28.50;;;3.60;99.90;;;;;;4993412;28;20042;-84
2023/01/25 03:51:21;;;;;;;50.53;28.60;;;3.60;99.90;;;;;;4992951;28;20403;-84
2023/01/25 03:53:48;;;;;;;51.70;28.90;;;3.60;99.90;;;;;;4993451;28;20045;-84
2023/01/25 03:56:18;;;;;;;53.37;30.53;;;3.60;99.90;;;;;;5024634;28;20416;-84
2023/01/25 03:58:44;;;;;;;48.97;28.92;;;3.60;99.90;;;;;;5007911;28;20077;-84
2023/01/25 04:01:11;;;;;;;49.90;28.77;;;3.60;99.90;;;;;;5008515;28;20030;-84
2023/01/25 04:03:37;;;;;;;47.23;27.87;;;3.60;99.90;;;;;;4993141;28;20030;-84
2023/01/25 04:06:03;;;;;;;57.60;29.60;;;3.60;99.90;;;;;;4992473;28;20033;-84
2023/01/25 04:08:29;;;;;;;53.60;29.77;;;3.60;99.90;;;;;;5001796;28;20041;-83
2023/01/25 04:11:04;;;;;;;54.17;30.47;;;3.60;99.90;;;;;;4992569;28;20030;-83
2023/01/25 04:13:30;;;;;;;44.17;25.40;;;3.60;99.90;;;;;;5036496;28;20411;-83
2023/01/25 04:15:56;;;;;;;53.40;29.73;;;3.60;99.90;;;;;;4991505;28;20042;-83
2023/01/25 04:18:22;;;;;;;50.47;29.40;;;3.60;99.90;;;;;;4993511;28;20506;-83
2023/01/25 04:20:55;;;;;;;53.57;30.17;;;3.60;99.90;;;;;;4993256;28;20033;-83
2023/01/25 04:23:21;;;;;;;35.07;22.47;;;3.70;99.90;;;;;;4991478;28;20019;-83
2023/01/25 04:25:58;;;;;;;50.67;29.80;;;3.60;99.90;;;;;;5008263;28;20045;-82
2023/01/25 04:28:24;;;;;;;51.47;29.27;;;3.60;99.90;;;;;;4981684;28;20049;-84
2023/01/25 04:30:50;;;;;;;48.20;26.77;;;3.60;99.90;;;;;;4987526;28;20038;-83
2023/01/25 04:33:16;;;;;;;34.97;20.73;;;3.60;99.90;;;;;;4992224;28;20034;-83
2023/01/25 04:35:42;;;;;;;48.80;28.00;;;3.60;99.90;;;;;;5024963;28;20038;-84
2023/01/25 04:38:08;;;;;;;45.77;28.57;;;3.60;99.90;;;;;;5024612;28;20467;-84
2023/01/25 04:40:35;;;;;;;49.83;28.87;;;3.60;99.90;;;;;;5024500;28;20022;-86
2023/01/25 04:43:01;;;;;;;46.13;24.37;;;3.60;99.90;;;;;;5008263;28;20380;-87
2023/01/25 04:45:27;;;;;;;48.27;29.23;;;3.50;99.90;;;;;;5030345;28;20034;-86
2023/01/25 04:48:00;;;;;;;48.50;28.03;;;3.50;99.90;;;;;;4983978;28;20037;-85
2023/01/25 04:50:26;;;;;;;55.20;30.00;;;3.60;99.90;;;;;;4994887;28;20029;-84
2023/01/25 04:52:53;;;;;;;54.27;29.63;;;3.60;99.90;;;;;;5024836;28;20045;-86
2023/01/25 04:55:19;;;;;;;82.47;32.50;;;3.60;99.90;;;;;;5007242;28;20038;-87
2023/01/25 04:57:47;;;;;;;61.93;31.63;;;3.60;99.90;;;;;;5008294;28;20030;-86
2023/01/25 05:00:14;;;;;;;50.87;28.53;;;3.60;99.90;;;;;;5008732;28;20030;-86
2023/01/25 05:02:40;;;;;;;51.73;28.40;;;3.60;99.90;;;;;;4999187;28;20042;-85
2023/01/25 05:05:06;;;;;;;43.97;24.93;;;3.60;99.90;;;;;;4998093;28;20042;-84
2023/01/25 05:07:32;;;;;;;48.57;27.87;;;3.60;99.90;;;;;;4998336;28;20049;-85
2023/01/25 05:09:58;;;;;;;54.93;29.93;;;3.50;99.90;;;;;;4991718;28;20039;-86
2023/01/25 05:12:24;;;;;;;48.77;29.43;;;3.50;99.90;;;;;;5012644;28;20125;-86
2023/01/25 05:14:50;;;;;;;48.70;29.37;;;3.60;99.90;;;;;;5011255;28;20038;-87
2023/01/25 05:17:17;;;;;;;44.53;26.93;;;3.50;99.90;;;;;;4984920;28;20408;-86
2023/01/25 05:19:43;;;;;;;53.13;28.20;;;3.50;99.90;;;;;;5008020;28;20057;-86
2023/01/25 05:22:16;;;;;;;53.00;28.47;;;3.50;99.90;;;;;;4989835;28;20162;-86
2023/01/25 05:24:43;;;;;;;45.80;25.93;;;3.60;99.90;;;;;;4991116;28;20047;-86
2023/01/25 05:27:11;;;;;;;51.00;28.93;;;3.50;99.90;;;;;;4976020;28;20043;-86
2023/01/25 05:29:41;;;;;;;58.87;30.87;;;3.50;99.90;;;;;;4976205;28;20043;-86
2023/01/25 05:32:21;;;;;;;28.33;19.95;;;3.60;99.90;;;;;;4987664;28;20368;-86
2023/01/25 05:34:47;;;;;;;33.50;21.83;;;3.60;99.90;;;;;;5008713;28;20134;-87
2023/01/25 05:37:15;;;;;;;47.00;26.60;;;3.50;99.90;;;;;;5011483;28;20026;-87
2023/01/25 05:39:41;;;;;;;47.90;26.17;;;3.50;99.90;;;;;;5011747;28;20026;-86
2023/01/25 05:42:15;;;;;;;34.90;21.83;;;3.50;99.90;;;;;;4995297;28;20114;-87
2023/01/25 05:44:41;;;;;;;40.77;24.97;;;3.50;99.90;;;;;;4994401;28;20395;-86
2023/01/25 05:47:17;;;;;;;51.30;29.43;;;3.50;99.90;;;;;;5010949;28;20030;-86
2023/01/25 05:49:43;;;;;;;46.50;27.03;;;3.60;99.90;;;;;;5026714;28;20030;-86
2023/01/25 05:52:15;;;;;;;52.77;30.43;;;3.50;99.90;;;;;;4994989;28;20411;-85
2023/01/25 05:54:42;;;;;;;44.40;27.37;;;3.50;99.90;;;;;;4995049;28;20037;-86
2023/01/25 05:57:08;;;;;;;50.10;29.20;;;3.60;99.90;;;;;;4995211;28;20030;-86
2023/01/25 05:59:34;;;;;;;40.73;24.30;;;3.50;99.90;;;;;;4977961;28;20045;-86
2023/01/25 06:02:00;;;;;;;50.80;28.73;;;3.60;99.90;;;;;;5026828;28;20479;-86
2023/01/25 06:04:26;;;;;;;45.70;27.97;;;3.50;99.90;;;;;;5011333;28;20041;-86
2023/01/25 06:06:52;;;;;;;47.77;29.20;;;3.50;99.90;;;;;;5011041;28;20026;-86
2023/01/25 06:09:18;;;;;;;43.60;25.13;;;3.50;99.90;;;;;;5011122;28;20038;-86
2023/01/25 06:11:44;;;;;;;44.50;26.20;;;3.60;99.90;;;;;;4996149;28;20022;-86
2023/01/25 06:14:10;;;;;;;50.93;29.27;;;3.50;99.90;;;;;;5010084;28;20042;-86
2023/01/25 06:16:37;;;;;;;43.93;24.97;;;3.50;99.90;;;;;;5010187;28;20046;-86
2023/01/25 06:19:06;;;;;;;47.70;26.67;;;3.60;99.90;;;;;;4994719;28;20510;-86
2023/01/25 06:21:35;;;;;;;51.67;27.93;;;3.50;99.90;;;;;;4990927;28;20038;-86
2023/01/25 06:24:03;;;;;;;44.07;27.00;;;3.60;99.90;;;;;;4984497;28;20037;-86
2023/01/25 06:26:29;;;;;;;44.23;26.07;;;3.50;99.90;;;;;;4978667;28;20042;-86
2023/01/25 06:28:55;;;;;;;47.77;26.10;;;3.50;99.90;;;;;;4995612;28;20054;-86
2023/01/25 06:31:21;;;;;;;46.30;26.67;;;3.50;99.90;;;;;;4988586;28;20034;-86
2023/01/25 06:33:48;;;;;;;32.17;20.33;;;3.50;99.90;;;;;;5007714;28;20027;-86
2023/01/25 06:36:15;;;;;;;44.67;27.37;;;3.40;99.90;;;;;;4990207;28;20047;-86
2023/01/25 06:38:42;;;;;;;45.10;27.97;;;3.50;99.90;;;;;;4998327;28;20361;-86
2023/01/25 06:41:09;;;;;;;41.27;24.67;;;3.60;99.90;;;;;;4994177;28;20037;-86
2023/01/25 06:43:36;;;;;;;47.63;27.63;;;3.50;99.90;;;;;;4978498;28;20042;-86
2023/01/25 06:46:03;;;;;;;43.53;25.80;;;3.50;99.90;;;;;;4997270;28;20030;-85
2023/01/25 06:48:30;;;;;;;50.30;27.73;;;3.60;99.90;;;;;;4978436;28;20475;-86
2023/01/25 06:50:57;;;;;;;44.40;26.93;;;3.60;99.90;;;;;;4961529;28;20046;-86
2023/01/25 06:53:27;;;;;;;28.23;19.53;;;3.60;99.90;;;;;;5030516;28;20034;-86
2023/01/25 06:56:04;;;;;;;47.40;27.87;;;3.50;99.90;;;;;;5012007;28;20040;-85
2023/01/25 06:58:30;;;;;;;43.87;25.73;;;3.50;99.90;;;;;;5001607;28;20739;-87
2023/01/25 07:01:20;;;;;;;46.53;26.47;;;3.50;99.90;;;;;;4993970;28;20514;-84
2023/01/25 07:03:50;;;;;;;47.57;28.30;;;3.50;99.90;;;;;;5006381;28;20037;-85
2023/01/25 07:06:17;;;;;;;53.70;27.57;;;3.50;99.90;;;;;;5010720;28;20030;-84
2023/01/25 07:08:43;;;;;;;44.00;26.53;;;3.50;99.90;;;;;;5006996;28;20038;-84
2023/01/25 07:11:12;;;;;;;40.53;24.60;;;3.60;99.90;;;;;;4993781;28;20045;-84
2023/01/25 07:13:39;;;;;;;50.83;28.30;;;3.50;99.90;;;;;;4977767;28;20043;-85
2023/01/25 07:16:07;;;;;;;42.63;26.07;;;3.50;99.90;;;;;;4992933;28;20053;-84
2023/01/25 07:18:36;;;;;;;48.67;27.73;;;3.60;99.90;;;;;;4995057;28;20034;-85
2023/01/25 07:21:07;;;;;;;44.03;27.47;;;3.60;99.90;;;;;;4978572;28;20359;-85
2023/01/25 07:23:33;;;;;;;32.83;20.10;;;3.60;99.90;;;;;;5009290;28;20026;-85
2023/01/25 07:26:00;;;;;;;49.13;27.77;;;3.60;99.90;;;;;;5013221;28;20471;-85
2023/01/25 07:28:26;;;;;;;44.13;27.07;;;3.50;99.90;;;;;;4991213;28;20034;-85
2023/01/25 07:30:52;;;;;;;39.13;24.70;;;3.60;99.90;;;;;;5006849;28;20499;-87
2023/01/25 07:33:18;;;;;;;39.33;24.87;;;3.60;99.90;;;;;;4989997;28;20045;-84
2023/01/25 07:35:44;;;;;;;44.23;24.47;;;3.60;99.90;;;;;;4961877;28;20061;-86
2023/01/25 07:38:10;;;;;;;43.63;26.33;;;3.60;99.90;;;;;;4994323;28;20034;-84
2023/01/25 07:40:37;;;;;;;40.50;24.27;;;3.50;99.90;;;;;;4982125;28;20049;-85
2023/01/25 07:43:03;;;;;;;40.47;24.30;;;3.50;99.90;;;;;;4990827;28;20031;-87
2023/01/25 07:45:30;;;;;;;45.57;24.00;;;3.50;99.90;;;;;;4995717;28;20034;-86
2023/01/25 07:47:59;;;;;;;19.03;17.03;;;3.50;99.90;;;;;;4991824;28;20049;-85
2023/01/25 07:50:26;;;;;;;39.97;23.33;;;3.60;99.90;;;;;;4985384;28;20046;-86
2023/01/25 07:52:52;;;;;;;44.07;23.90;;;3.50;99.90;;;;;;4994064;28;20034;-89
2023/01/25 07:55:19;;;;;;;38.80;24.10;;;3.50;99.90;;;;;;5013799;28;20050;-86
2023/01/25 07:57:45;;;;;;;34.50;23.20;;;3.60;99.90;;;;;;4992894;28;20476;-88
2023/01/25 08:00:11;;;;;;;44.20;25.43;;;3.50;99.90;;;;;;5027080;28;20030;-86
2023/01/25 08:02:38;;;;;;;40.70;25.90;;;3.50;99.90;;;;;;4995518;28;20029;-90
2023/01/25 08:05:05;;;;;;;41.67;24.73;;;3.60;99.90;;;;;;4975327;28;20046;-86
2023/01/25 08:07:31;;;;;;;41.03;23.90;;;3.60;99.90;;;;;;5007202;28;20038;-83
2023/01/25 08:09:57;;;;;;;34.87;22.30;;;3.60;99.90;;;;;;4999169;28;20033;-84
2023/01/25 08:12:26;;;;;;;38.80;22.70;;;3.50;99.90;;;;;;5013170;28;20030;-84
2023/01/25 08:14:52;;;;;;;36.53;24.37;;;3.50;99.90;;;;;;5012607;28;20026;-85
2023/01/25 08:17:18;;;;;;;37.87;24.00;;;3.50;99.90;;;;;;4989401;28;20057;-83
2023/01/25 08:19:44;;;;;;;38.47;23.60;;;3.60;99.90;;;;;;4991013;28;20030;-82
2023/01/25 08:22:12;;;;;;;34.90;23.23;;;3.60;99.90;;;;;;4990135;28;20030;-82
2023/01/25 08:24:38;;;;;;;40.30;23.40;;;3.60;99.90;;;;;;4993630;28;20022;-82
2023/01/25 08:27:04;;;;;;;37.97;23.33;;;3.60;99.90;;;;;;4993672;28;20022;-84
2023/01/25 08:29:30;;;;;;;35.63;23.27;;;3.70;99.90;;;;;;5025089;28;20043;-84
2023/01/25 08:31:57;;;;;;;36.60;23.97;;;3.50;99.90;;;;;;4987120;28;20062;-84
2023/01/25 08:34:23;;;;;;;32.83;21.23;;;3.50;99.90;;;;;;5008225;28;20118;-84
2023/01/25 08:36:49;;;;;;;37.63;22.90;;;3.50;99.90;;;;;;5011339;28;20045;-82
2023/01/25 08:39:16;;;;;;;38.13;22.53;;;3.50;99.90;;;;;;4985833;28;20034;-83
2023/01/25 08:41:44;;;;;;;39.53;23.87;;;3.50;99.90;;;;;;5008550;28;20041;-83
2023/01/25 08:44:10;;;;;;;46.27;25.27;;;3.60;99.90;;;;;;5024381;28;20033;-83
2023/01/25 08:46:36;;;;;;;39.07;23.40;;;3.60;99.90;;;;;;4992558;28;20037;-82
2023/01/25 08:49:03;;;;;;;42.23;25.73;;;3.60;99.90;;;;;;5008509;28;20472;-83
2023/01/25 08:51:30;;;;;;;26.17;18.63;;;3.60;99.90;;;;;;5007659;28;20395;-83
2023/01/25 08:53:56;;;;;;;37.57;23.40;;;3.60;99.90;;;;;;5023807;28;20026;-83
2023/01/25 08:56:22;;;;;;;28.53;18.17;;;3.60;99.90;;;;;;4992318;28;20034;-82
2023/01/25 08:58:49;;;;;;;39.17;23.77;;;3.60;99.90;;;;;;4993247;28;20037;-82
2023/01/25 09:01:15;;;;;;;39.43;24.50;;;3.50;99.90;;;;;;5017001;28;20523;-82
2023/01/25 09:03:46;;;;;;;37.70;23.17;;;3.50;99.90;;;;;;5021260;28;20027;-84
2023/01/25 09:06:12;;;;;;;39.42;24.17;;;3.50;99.90;;;;;;5023031;28;20034;-84
2023/01/25 09:08:38;;;;;;;38.50;22.53;;;3.50;99.90;;;;;;4993007;28;20037;-84
2023/01/25 09:11:07;;;;;;;37.97;23.60;;;3.60;99.90;;;;;;4992145;28;20033;-84
2023/01/25 09:13:33;;;;;;;38.93;23.67;;;3.60;99.90;;;;;;5004364;28;20026;-83
2023/01/25 09:16:06;;;;;;;36.53;22.40;;;3.60;99.90;;;;;;5000485;28;20050;-84
2023/01/25 09:18:32;;;;;;;41.83;25.13;;;3.60;99.90;;;;;;4983482;28;20027;-84
2023/01/25 09:20:59;;;;;;;39.03;23.20;;;3.60;99.90;;;;;;5010369;28;20042;-84
2023/01/25 09:23:25;;;;;;;37.90;23.10;;;3.60;99.90;;;;;;4989145;28;20042;-83
2023/01/25 09:26:01;;;;;;;37.67;22.37;;;3.60;99.90;;;;;;5018711;28;20027;-90
2023/01/25 09:28:28;;;;;;;40.53;22.80;;;3.70;99.90;;;;;;4967666;28;20050;-95
2023/01/25 09:30:59;;;;;;;35.23;22.70;;;4.00;99.90;;;;;;4984150;28;20038;-93
2023/01/25 09:33:27;;;;;;;39.57;24.40;;;4.10;99.90;;;;;;4990857;28;20400;-93
2023/01/25 09:35:53;;;;;;;36.13;23.37;;;4.40;99.90;;;;;;4968319;28;20062;-93
2023/01/25 09:38:19;;;;;;;34.73;21.73;;;4.40;99.90;;;;;;4955031;28;20035;-89
2023/01/25 09:41:07;;;;;;;37.03;23.63;;;4.40;99.90;;;;;;4967495;28;20043;-85
2023/01/25 09:44:00;;;;;;;39.23;24.03;;;4.30;99.90;;;;;;4974111;28;20378;-83
2023/01/25 09:46:38;;;;;;;43.37;29.30;;;4.10;99.90;;;;;;4981364;28;20035;-91
2023/01/25 09:49:32;;;;;;;37.90;23.93;;;4.10;99.90;;;;;;4981921;28;20030;-84
2023/01/25 09:52:46;;;;;;;38.93;24.67;;;4.20;99.90;;;;;;4989282;28;20049;-93
2023/01/25 09:55:13;;;;;;;39.37;25.37;;;4.10;99.90;;;;;;4995755;28;20038;-89
2023/01/25 09:57:40;;;;;;;37.87;23.73;;;4.10;99.90;;;;;;4979457;28;20049;-84
2023/01/25 10:00:22;;;;;;;39.30;23.00;;;4.00;99.90;;;;;;4984718;28;20049;-91
2023/01/25 10:02:57;;;;;;;35.97;22.47;;;3.90;99.90;;;;;;4990404;28;20053;-86
2023/01/25 10:05:26;;;;;;;36.57;21.80;;;3.90;99.90;;;;;;4996022;28;20038;-85
2023/01/25 10:08:10;;;;;;;35.80;24.00;;;3.90;99.90;;;;;;4998159;28;20025;-85
2023/01/25 10:10:41;;;;;;;30.93;21.57;;;3.90;99.90;;;;;;5011044;28;20037;-84
2023/01/25 10:13:14;;;;;;;34.33;21.98;;;3.90;99.90;;;;;;4974706;28;20399;-83
2023/01/25 10:15:43;;;;;;;33.37;21.60;;;3.90;99.90;;;;;;4977135;28;20038;-84
2023/01/25 10:18:18;;;;;;;37.30;23.53;;;3.90;99.90;;;;;;4993365;28;20053;-82
2023/01/25 10:20:55;;;;;;;38.47;24.13;;;3.90;99.90;;;;;;4986787;28;20061;-84
2023/01/25 10:23:45;;;;;;;43.40;23.90;;;4.00;99.90;;;;;;4994414;28;20038;-84
2023/01/25 10:26:16;;;;;;;27.67;18.93;;;3.90;99.90;;;;;;4990562;28;20054;-83
2023/01/25 10:28:48;;;;;;;36.50;23.20;;;4.00;99.90;;;;;;4958471;28;20051;-83
2023/01/25 10:31:19;;;;;;;32.77;21.17;;;3.90;99.90;;;;;;4987659;28;20037;-83
2023/01/25 10:33:46;;;;;;;36.95;23.27;;;4.00;99.90;;;;;;5001435;28;20026;-83
2023/01/25 10:36:17;;;;;;;30.93;21.17;;;4.00;99.90;;;;;;5026188;28;20387;-82
2023/01/25 10:38:45;;;;;;;39.72;23.42;;;4.00;99.90;;;;;;5026249;28;20026;-82
2023/01/25 10:41:17;;;;;;;38.63;23.73;;;4.00;99.90;;;;;;5009540;28;20479;-83
2023/01/25 10:43:43;;;;;;;23.60;19.43;;;4.10;99.90;;;;;;4997777;28;20027;-84
2023/01/25 10:46:22;;;;;;;34.23;22.93;;;4.00;99.90;;;;;;4994063;28;20064;-84
2023/01/25 10:48:48;;;;;;;35.83;20.80;;;3.90;99.90;;;;;;5008501;28;20018;-83
2023/01/25 10:51:40;;;;;;;32.30;21.43;;;4.00;99.90;;;;;;5009546;28;20046;-83
2023/01/25 10:54:13;;;;;;;35.67;23.40;;;4.00;99.90;;;;;;4996542;28;20034;-86
2023/01/25 10:56:39;;;;;;;37.13;22.80;;;4.00;99.90;;;;;;5012795;28;20042;-85
2023/01/25 10:59:19;;;;;;;33.27;22.93;;;4.00;99.90;;;;;;4990520;28;20510;-82
2023/01/25 11:01:45;;;;;;;33.47;22.27;;;4.10;99.90;;;;;;5032667;28;20049;-83
2023/01/25 11:04:28;;;;;;;35.57;25.17;;;4.00;99.90;;;;;;4996524;28;20030;-83
2023/01/25 11:06:55;;;;;;;30.90;21.00;;;4.10;99.90;;;;;;4993932;28;20043;-82
2023/01/25 11:09:21;;;;;;;31.97;20.77;;;4.10;99.90;;;;;;5010093;28;20038;-81
2023/01/25 11:11:56;;;;;;;39.43;24.30;;;4.10;99.90;;;;;;4996868;28;20033;-82
2023/01/25 11:14:25;;;;;;;30.50;20.93;;;4.00;99.90;;;;;;4996118;28;20030;-82
2023/01/25 11:16:52;;;;;;;33.10;20.77;;;4.00;99.90;;;;;;4995664;28;20033;-83
2023/01/25 11:19:37;;;;;;;25.93;20.37;;;4.00;99.90;;;;;;4994350;28;20022;-84
2023/01/25 11:22:24;;;;;;;32.00;21.03;;;4.00;99.90;;;;;;4993518;28;20053;-82
2023/01/25 11:24:51;;;;;;;29.83;20.20;;;4.00;99.90;;;;;;5025221;28;20057;-83
2023/01/25 11:27:17;;;;;;;33.70;22.47;;;4.00;99.90;;;;;;4990661;28;20392;-82
2023/01/25 11:29:45;;;;;;;37.87;24.60;;;4.00;99.90;;;;;;4993393;28;20057;-82
2023/01/25 11:32:19;;;;;;;33.47;22.47;;;4.10;99.90;;;;;;5013131;28;20053;-84
2023/01/25 11:34:45;;;;;;;33.13;22.77;;;4.20;99.90;;;;;;4996278;28;20034;-81
2023/01/25 11:37:23;;;;;;;35.90;23.33;;;4.10;99.90;;;;;;4992427;28;20410;-82
2023/01/25 11:40:05;;;;;;;20.30;17.13;;;4.10;99.90;;;;;;4991945;28;20075;-82
2023/01/25 11:42:43;;;;;;;34.27;25.00;;;4.10;99.90;;;;;;5011745;28;20034;-81
2023/01/25 11:45:15;;;;;;;23.90;19.40;;;4.10;99.90;;;;;;4991017;28;20037;-82
2023/01/25 11:48:29;;;;;;;29.53;22.80;;;4.10;99.90;;;;;;4991879;28;20487;-82
2023/01/25 11:51:12;;;;;;;30.23;21.70;;;4.00;99.90;;;;;;5008651;28;20145;-82
2023/01/25 11:53:38;;;;;;;27.30;21.57;;;4.10;99.90;;;;;;4999951;28;20039;-82
2023/01/25 11:56:15;;;;;;;27.33;21.07;;;4.20;99.90;;;;;;4975160;28;20045;-83
2023/01/25 11:59:22;;;;;;;21.90;18.20;;;4.10;99.90;;;;;;4997995;28;20045;-82
2023/01/25 12:02:12;;;;;;;25.90;20.70;;;4.10;99.90;;;;;;4996032;28;20551;-83
2023/01/25 12:04:44;;;;;;;25.33;20.93;;;4.00;99.90;;;;;;5005622;28;20057;-82
2023/01/25 12:07:19;;;;;;;24.50;19.93;;;4.10;99.90;;;;;;4998495;28;20037;-83
2023/01/25 12:09:48;;;;;;;22.87;17.60;;;4.10;99.90;;;;;;4993024;28;20029;-83
2023/01/25 12:12:39;;;;;;;24.37;20.00;;;4.00;99.90;;;;;;4991632;28;20054;-83
2023/01/25 12:15:36;;;;;;;22.35;18.38;;;4.00;99.90;;;;;;5003239;28;20029;-82
2023/01/25 12:18:34;;;;;;;23.47;18.27;;;4.00;99.90;;;;;;4985377;28;20046;-81
2023/01/25 12:21:34;;;;;;;21.33;18.60;;;3.90;99.90;;;;;;4996336;28;20029;-82
2023/01/25 12:24:15;;;;;;;25.83;18.10;;;3.90;99.90;;;;;;4998634;28;20050;-83
2023/01/25 12:27:02;;;;;;;26.40;19.42;;;4.00;99.90;;;;;;5013923;28;20034;-83
2023/01/25 12:29:35;;;;;;;14.37;13.17;;;4.10;99.90;;;;;;5020426;28;20058;-83
2023/01/25 12:32:01;;;;;;;20.77;16.17;;;4.00;99.90;;;;;;5022468;28;20041;-83
2023/01/25 12:34:37;;;;;;;26.30;20.63;;;3.90;99.90;;;;;;4992772;28;20503;-83
2023/01/25 12:37:12;;;;;;;28.40;19.53;;;4.00;99.90;;;;;;5017313;28;20522;-83
2023/01/25 12:39:42;;;;;;;28.33;17.63;;;4.10;99.90;;;;;;4975397;28;20487;-83
2023/01/25 12:42:22;;;;;;;24.27;17.77;;;4.00;99.90;;;;;;5006666;28;20045;-84
2023/01/25 12:45:08;;;;;;;29.13;18.93;;;3.80;99.90;;;;;;5006033;28;20034;-83
2023/01/25 12:48:13;;;;;;;22.93;18.77;;;3.70;99.90;;;;;;4969421;28;20053;-82
2023/01/25 12:50:56;;;;;;;27.97;21.43;;;3.80;99.90;;;;;;4982075;28;20031;-82
2023/01/25 12:53:23;;;;;;;32.13;20.27;;;3.80;99.90;;;;;;5000924;28;20027;-83